sensor_id;sensor_type;location;lat;lon;timestamp;P1;durP1;ratioP1;P2;durP2;ratioP2
48853;SDS011;34673;52.808;17.856;2023-06-04T00:02:26;8.40;;;2.53;;
48853;SDS011;34673;52.808;17.856;2023-06-04T00:04:53;5.72;;;2.63;;
48853;SDS011;34673;52.808;17.856;2023-06-04T00:07:21;10.85;;;3.17;;
48853;SDS011;34673;52.808;17.856;2023-06-04T00:09:48;8.55;;;3.03;;
48853;SDS011;34673;52.808;17.856;2023-06-04T00:12:15;8.40;;;2.53;;
48853;SDS011;34673;52.808;17.856;2023-06-04T00:14:43;10.43;;;3.20;;
48853;SDS011;34673;52.808;17.856;2023-06-04T00:17:10;7.65;;;3.03;;
48853;SDS011;34673;52.808;17.856;2023-06-04T00:19:38;10.02;;;3.03;;
48853;SDS011;34673;52.808;17.856;2023-06-04T00:22:07;11.48;;;3.10;;
48853;SDS011;34673;52.808;17.856;2023-06-04T00:24:36;8.45;;;3.20;;
48853;SDS011;34673;52.808;17.856;2023-06-04T00:27:05;7.07;;;3.17;;
48853;SDS011;34673;52.808;17.856;2023-06-04T00:29:33;11.70;;;3.78;;
48853;SDS011;34673;52.808;17.856;2023-06-04T00:32:00;10.55;;;3.92;;
48853;SDS011;34673;52.808;17.856;2023-06-04T00:34:28;7.47;;;3.58;;
48853;SDS011;34673;52.808;17.856;2023-06-04T00:36:55;11.82;;;3.72;;
48853;SDS011;34673;52.808;17.856;2023-06-04T00:39:22;9.75;;;3.92;;
48853;SDS011;34673;52.808;17.856;2023-06-04T00:41:49;9.65;;;3.80;;
48853;SDS011;34673;52.808;17.856;2023-06-04T00:44:16;9.00;;;3.50;;
48853;SDS011;34673;52.808;17.856;2023-06-04T00:46:44;8.35;;;3.35;;
48853;SDS011;34673;52.808;17.856;2023-06-04T00:49:12;12.80;;;3.92;;
48853;SDS011;34673;52.808;17.856;2023-06-04T00:51:39;8.50;;;3.67;;
48853;SDS011;34673;52.808;17.856;2023-06-04T00:54:07;10.88;;;4.20;;
48853;SDS011;34673;52.808;17.856;2023-06-04T00:56:37;7.60;;;3.28;;
48853;SDS011;34673;52.808;17.856;2023-06-04T00:59:08;12.30;;;3.42;;
48853;SDS011;34673;52.808;17.856;2023-06-04T01:01:44;13.80;;;3.90;;
48853;SDS011;34673;52.808;17.856;2023-06-04T01:04:36;8.88;;;3.70;;
48853;SDS011;34673;52.808;17.856;2023-06-04T01:07:24;11.23;;;4.18;;
48853;SDS011;34673;52.808;17.856;2023-06-04T01:09:56;11.00;;;4.18;;
48853;SDS011;34673;52.808;17.856;2023-06-04T01:12:24;10.13;;;3.72;;
48853;SDS011;34673;52.808;17.856;2023-06-04T01:14:51;11.52;;;3.90;;
48853;SDS011;34673;52.808;17.856;2023-06-04T01:17:37;11.18;;;3.75;;
48853;SDS011;34673;52.808;17.856;2023-06-04T01:25:33;9.68;;;3.63;;
48853;SDS011;34673;52.808;17.856;2023-06-04T01:28:12;11.77;;;3.60;;
48853;SDS011;34673;52.808;17.856;2023-06-04T01:33:13;8.90;;;3.25;;
48853;SDS011;34673;52.808;17.856;2023-06-04T01:35:42;10.88;;;3.40;;
48853;SDS011;34673;52.808;17.856;2023-06-04T01:38:10;10.68;;;4.03;;
48853;SDS011;34673;52.808;17.856;2023-06-04T01:40:37;11.25;;;4.22;;
48853;SDS011;34673;52.808;17.856;2023-06-04T01:43:05;9.52;;;3.83;;
48853;SDS011;34673;52.808;17.856;2023-06-04T01:45:32;9.23;;;4.13;;
48853;SDS011;34673;52.808;17.856;2023-06-04T01:48:00;11.80;;;4.63;;
48853;SDS011;34673;52.808;17.856;2023-06-04T01:50:28;9.38;;;4.07;;
48853;SDS011;34673;52.808;17.856;2023-06-04T01:52:57;12.10;;;4.80;;
48853;SDS011;34673;52.808;17.856;2023-06-04T01:55:24;15.00;;;4.47;;
48853;SDS011;34673;52.808;17.856;2023-06-04T01:57:52;13.05;;;4.15;;
48853;SDS011;34673;52.808;17.856;2023-06-04T02:00:20;9.77;;;3.83;;
48853;SDS011;34673;52.808;17.856;2023-06-04T02:02:47;11.95;;;4.20;;
48853;SDS011;34673;52.808;17.856;2023-06-04T02:05:17;8.23;;;4.40;;
48853;SDS011;34673;52.808;17.856;2023-06-04T02:07:45;12.27;;;4.20;;
48853;SDS011;34673;52.808;17.856;2023-06-04T02:10:18;14.35;;;4.43;;
48853;SDS011;34673;52.808;17.856;2023-06-04T02:13:02;10.85;;;4.65;;
48853;SDS011;34673;52.808;17.856;2023-06-04T02:15:30;8.80;;;3.83;;
48853;SDS011;34673;52.808;17.856;2023-06-04T02:17:59;12.60;;;4.30;;
48853;SDS011;34673;52.808;17.856;2023-06-04T02:20:43;10.43;;;4.40;;
48853;SDS011;34673;52.808;17.856;2023-06-04T02:23:12;10.60;;;4.05;;
48853;SDS011;34673;52.808;17.856;2023-06-04T02:25:40;10.25;;;4.00;;
48853;SDS011;34673;52.808;17.856;2023-06-04T02:28:08;9.80;;;4.45;;
48853;SDS011;34673;52.808;17.856;2023-06-04T02:30:35;12.70;;;4.55;;
48853;SDS011;34673;52.808;17.856;2023-06-04T02:33:02;9.02;;;4.40;;
48853;SDS011;34673;52.808;17.856;2023-06-04T02:35:30;9.25;;;3.75;;
48853;SDS011;34673;52.808;17.856;2023-06-04T02:37:58;10.75;;;4.28;;
48853;SDS011;34673;52.808;17.856;2023-06-04T02:40:25;8.68;;;4.20;;
48853;SDS011;34673;52.808;17.856;2023-06-04T02:42:53;9.23;;;4.38;;
48853;SDS011;34673;52.808;17.856;2023-06-04T02:45:21;13.48;;;4.97;;
48853;SDS011;34673;52.808;17.856;2023-06-04T02:47:49;8.55;;;3.80;;
48853;SDS011;34673;52.808;17.856;2023-06-04T02:50:16;11.45;;;4.13;;
48853;SDS011;34673;52.808;17.856;2023-06-04T02:52:44;9.63;;;3.90;;
48853;SDS011;34673;52.808;17.856;2023-06-04T02:55:11;10.27;;;3.90;;
48853;SDS011;34673;52.808;17.856;2023-06-04T02:57:42;9.05;;;4.20;;
48853;SDS011;34673;52.808;17.856;2023-06-04T03:00:10;9.55;;;3.65;;
48853;SDS011;34673;52.808;17.856;2023-06-04T03:02:44;7.57;;;3.47;;
48853;SDS011;34673;52.808;17.856;2023-06-04T03:05:15;12.10;;;3.60;;
48853;SDS011;34673;52.808;17.856;2023-06-04T03:07:45;10.15;;;3.72;;
48853;SDS011;34673;52.808;17.856;2023-06-04T03:10:14;12.00;;;3.95;;
48853;SDS011;34673;52.808;17.856;2023-06-04T03:12:42;10.23;;;3.70;;
48853;SDS011;34673;52.808;17.856;2023-06-04T03:15:10;12.45;;;4.18;;
48853;SDS011;34673;52.808;17.856;2023-06-04T03:17:38;8.10;;;3.85;;
48853;SDS011;34673;52.808;17.856;2023-06-04T03:20:05;12.90;;;4.22;;
48853;SDS011;34673;52.808;17.856;2023-06-04T03:22:34;8.77;;;4.00;;
48853;SDS011;34673;52.808;17.856;2023-06-04T03:25:03;8.50;;;3.58;;
48853;SDS011;34673;52.808;17.856;2023-06-04T03:27:31;9.35;;;3.65;;
48853;SDS011;34673;52.808;17.856;2023-06-04T03:29:59;9.35;;;3.78;;
48853;SDS011;34673;52.808;17.856;2023-06-04T03:32:33;9.80;;;3.40;;
48853;SDS011;34673;52.808;17.856;2023-06-04T03:35:01;8.57;;;3.70;;
48853;SDS011;34673;52.808;17.856;2023-06-04T03:37:31;10.52;;;3.83;;
48853;SDS011;34673;52.808;17.856;2023-06-04T03:40:00;8.93;;;3.58;;
48853;SDS011;34673;52.808;17.856;2023-06-04T03:42:27;7.82;;;3.53;;
48853;SDS011;34673;52.808;17.856;2023-06-04T03:44:54;7.82;;;3.38;;
48853;SDS011;34673;52.808;17.856;2023-06-04T03:47:26;9.50;;;3.47;;
48853;SDS011;34673;52.808;17.856;2023-06-04T03:49:54;9.00;;;3.72;;
48853;SDS011;34673;52.808;17.856;2023-06-04T03:52:21;7.47;;;3.33;;
48853;SDS011;34673;52.808;17.856;2023-06-04T03:54:48;6.80;;;3.08;;
48853;SDS011;34673;52.808;17.856;2023-06-04T03:57:17;8.55;;;3.35;;
48853;SDS011;34673;52.808;17.856;2023-06-04T03:59:45;9.20;;;3.05;;
48853;SDS011;34673;52.808;17.856;2023-06-04T04:02:12;8.32;;;3.33;;
48853;SDS011;34673;52.808;17.856;2023-06-04T04:04:39;10.68;;;3.95;;
48853;SDS011;34673;52.808;17.856;2023-06-04T04:07:06;9.65;;;3.72;;
48853;SDS011;34673;52.808;17.856;2023-06-04T04:09:34;8.15;;;3.58;;
48853;SDS011;34673;52.808;17.856;2023-06-04T04:12:02;9.93;;;3.83;;
48853;SDS011;34673;52.808;17.856;2023-06-04T04:14:32;13.00;;;4.30;;
48853;SDS011;34673;52.808;17.856;2023-06-04T04:16:59;12.73;;;3.75;;
48853;SDS011;34673;52.808;17.856;2023-06-04T04:19:27;8.50;;;3.50;;
48853;SDS011;34673;52.808;17.856;2023-06-04T04:21:55;9.02;;;3.90;;
48853;SDS011;34673;52.808;17.856;2023-06-04T04:24:26;13.38;;;4.38;;
48853;SDS011;34673;52.808;17.856;2023-06-04T04:26:58;8.75;;;3.58;;
48853;SDS011;34673;52.808;17.856;2023-06-04T04:29:25;6.70;;;3.63;;
48853;SDS011;34673;52.808;17.856;2023-06-04T04:31:55;8.63;;;3.35;;
48853;SDS011;34673;52.808;17.856;2023-06-04T04:34:27;6.85;;;3.60;;
48853;SDS011;34673;52.808;17.856;2023-06-04T04:36:54;10.02;;;3.42;;
48853;SDS011;34673;52.808;17.856;2023-06-04T04:39:25;12.25;;;3.83;;
48853;SDS011;34673;52.808;17.856;2023-06-04T04:41:55;9.32;;;3.92;;
48853;SDS011;34673;52.808;17.856;2023-06-04T04:44:22;8.90;;;3.67;;
48853;SDS011;34673;52.808;17.856;2023-06-04T04:46:50;8.30;;;3.60;;
48853;SDS011;34673;52.808;17.856;2023-06-04T04:49:17;9.50;;;3.55;;
48853;SDS011;34673;52.808;17.856;2023-06-04T04:51:46;8.85;;;3.30;;
48853;SDS011;34673;52.808;17.856;2023-06-04T04:54:15;7.57;;;3.10;;
48853;SDS011;34673;52.808;17.856;2023-06-04T04:56:42;8.18;;;2.47;;
48853;SDS011;34673;52.808;17.856;2023-06-04T04:59:09;7.95;;;3.08;;
48853;SDS011;34673;52.808;17.856;2023-06-04T05:01:36;5.88;;;2.58;;
48853;SDS011;34673;52.808;17.856;2023-06-04T05:04:04;10.07;;;3.17;;
48853;SDS011;34673;52.808;17.856;2023-06-04T05:06:36;7.68;;;2.67;;
48853;SDS011;34673;52.808;17.856;2023-06-04T05:09:05;7.07;;;2.90;;
48853;SDS011;34673;52.808;17.856;2023-06-04T05:11:32;7.53;;;3.13;;
48853;SDS011;34673;52.808;17.856;2023-06-04T05:13:59;6.25;;;2.30;;
48853;SDS011;34673;52.808;17.856;2023-06-04T05:16:27;6.32;;;2.17;;
48853;SDS011;34673;52.808;17.856;2023-06-04T05:18:56;6.93;;;2.22;;
48853;SDS011;34673;52.808;17.856;2023-06-04T05:21:26;5.50;;;1.83;;
48853;SDS011;34673;52.808;17.856;2023-06-04T05:24:00;6.43;;;1.75;;
48853;SDS011;34673;52.808;17.856;2023-06-04T05:26:31;5.47;;;2.03;;
48853;SDS011;34673;52.808;17.856;2023-06-04T05:29:05;6.13;;;1.83;;
48853;SDS011;34673;52.808;17.856;2023-06-04T05:31:37;6.63;;;2.15;;
48853;SDS011;34673;52.808;17.856;2023-06-04T05:34:10;7.22;;;2.22;;
48853;SDS011;34673;52.808;17.856;2023-06-04T05:36:39;6.22;;;2.50;;
48853;SDS011;34673;52.808;17.856;2023-06-04T05:39:07;5.82;;;2.22;;
48853;SDS011;34673;52.808;17.856;2023-06-04T05:41:48;5.57;;;2.33;;
48853;SDS011;34673;52.808;17.856;2023-06-04T05:44:16;7.47;;;2.13;;
48853;SDS011;34673;52.808;17.856;2023-06-04T05:46:43;4.47;;;2.35;;
48853;SDS011;34673;52.808;17.856;2023-06-04T05:49:11;4.70;;;2.15;;
48853;SDS011;34673;52.808;17.856;2023-06-04T05:51:39;4.68;;;1.80;;
48853;SDS011;34673;52.808;17.856;2023-06-04T05:54:07;4.25;;;1.50;;
48853;SDS011;34673;52.808;17.856;2023-06-04T05:56:38;4.82;;;1.60;;
48853;SDS011;34673;52.808;17.856;2023-06-04T05:59:06;4.88;;;1.52;;
48853;SDS011;34673;52.808;17.856;2023-06-04T06:01:33;4.82;;;1.80;;
48853;SDS011;34673;52.808;17.856;2023-06-04T06:04:01;4.57;;;1.40;;
48853;SDS011;34673;52.808;17.856;2023-06-04T06:06:29;5.93;;;1.98;;
48853;SDS011;34673;52.808;17.856;2023-06-04T06:08:56;3.72;;;1.60;;
48853;SDS011;34673;52.808;17.856;2023-06-04T06:11:25;7.18;;;1.90;;
48853;SDS011;34673;52.808;17.856;2023-06-04T06:13:54;4.97;;;1.85;;
48853;SDS011;34673;52.808;17.856;2023-06-04T06:16:21;4.15;;;1.48;;
48853;SDS011;34673;52.808;17.856;2023-06-04T06:18:49;3.35;;;1.55;;
48853;SDS011;34673;52.808;17.856;2023-06-04T06:21:16;3.85;;;1.40;;
48853;SDS011;34673;52.808;17.856;2023-06-04T06:23:43;6.43;;;1.80;;
48853;SDS011;34673;52.808;17.856;2023-06-04T06:26:10;4.40;;;1.70;;
48853;SDS011;34673;52.808;17.856;2023-06-04T06:28:47;1.95;;;1.02;;
48853;SDS011;34673;52.808;17.856;2023-06-04T06:31:15;6.00;;;1.45;;
48853;SDS011;34673;52.808;17.856;2023-06-04T06:33:42;3.60;;;1.30;;
48853;SDS011;34673;52.808;17.856;2023-06-04T06:36:10;3.45;;;1.20;;
48853;SDS011;34673;52.808;17.856;2023-06-04T06:38:40;4.35;;;1.10;;
48853;SDS011;34673;52.808;17.856;2023-06-04T06:41:07;4.18;;;1.10;;
48853;SDS011;34673;52.808;17.856;2023-06-04T06:43:35;3.40;;;1.08;;
48853;SDS011;34673;52.808;17.856;2023-06-04T06:46:02;2.45;;;0.80;;
48853;SDS011;34673;52.808;17.856;2023-06-04T06:48:29;3.15;;;0.77;;
48853;SDS011;34673;52.808;17.856;2023-06-04T06:50:56;2.05;;;0.80;;
48853;SDS011;34673;52.808;17.856;2023-06-04T06:53:23;3.65;;;0.93;;
48853;SDS011;34673;52.808;17.856;2023-06-04T06:55:51;3.65;;;0.77;;
48853;SDS011;34673;52.808;17.856;2023-06-04T06:58:18;2.13;;;0.90;;
48853;SDS011;34673;52.808;17.856;2023-06-04T07:00:45;2.42;;;0.98;;
48853;SDS011;34673;52.808;17.856;2023-06-04T07:03:12;3.58;;;1.00;;
48853;SDS011;34673;52.808;17.856;2023-06-04T07:05:40;3.35;;;0.90;;
48853;SDS011;34673;52.808;17.856;2023-06-04T07:08:07;3.80;;;1.00;;
48853;SDS011;34673;52.808;17.856;2023-06-04T07:10:34;3.45;;;0.95;;
48853;SDS011;34673;52.808;17.856;2023-06-04T07:13:01;2.58;;;0.90;;
48853;SDS011;34673;52.808;17.856;2023-06-04T07:15:28;2.28;;;0.77;;
48853;SDS011;34673;52.808;17.856;2023-06-04T07:17:55;2.45;;;0.90;;
48853;SDS011;34673;52.808;17.856;2023-06-04T07:20:23;3.17;;;0.93;;
48853;SDS011;34673;52.808;17.856;2023-06-04T07:22:50;3.28;;;0.88;;
48853;SDS011;34673;52.808;17.856;2023-06-04T07:25:17;3.30;;;0.73;;
48853;SDS011;34673;52.808;17.856;2023-06-04T07:27:47;2.30;;;0.70;;
48853;SDS011;34673;52.808;17.856;2023-06-04T07:30:17;4.85;;;0.82;;
48853;SDS011;34673;52.808;17.856;2023-06-04T07:32:48;2.42;;;0.88;;
48853;SDS011;34673;52.808;17.856;2023-06-04T07:35:16;3.95;;;0.90;;
48853;SDS011;34673;52.808;17.856;2023-06-04T07:37:43;5.07;;;0.90;;
48853;SDS011;34673;52.808;17.856;2023-06-04T07:40:16;2.97;;;0.93;;
48853;SDS011;34673;52.808;17.856;2023-06-04T07:42:44;8.32;;;1.10;;
48853;SDS011;34673;52.808;17.856;2023-06-04T07:45:13;3.10;;;0.80;;
48853;SDS011;34673;52.808;17.856;2023-06-04T07:47:40;1.77;;;0.70;;
48853;SDS011;34673;52.808;17.856;2023-06-04T07:50:08;1.90;;;0.82;;
48853;SDS011;34673;52.808;17.856;2023-06-04T07:52:35;2.50;;;1.00;;
48853;SDS011;34673;52.808;17.856;2023-06-04T07:55:03;3.67;;;0.80;;
48853;SDS011;34673;52.808;17.856;2023-06-04T07:57:30;2.45;;;0.65;;
48853;SDS011;34673;52.808;17.856;2023-06-04T07:59:58;4.38;;;0.90;;
48853;SDS011;34673;52.808;17.856;2023-06-04T08:02:26;3.30;;;0.80;;
48853;SDS011;34673;52.808;17.856;2023-06-04T08:04:53;2.13;;;0.75;;
48853;SDS011;34673;52.808;17.856;2023-06-04T08:07:21;3.05;;;0.90;;
48853;SDS011;34673;52.808;17.856;2023-06-04T08:09:48;2.83;;;0.80;;
48853;SDS011;34673;52.808;17.856;2023-06-04T08:12:16;3.30;;;0.80;;
48853;SDS011;34673;52.808;17.856;2023-06-04T08:14:43;2.20;;;0.82;;
48853;SDS011;34673;52.808;17.856;2023-06-04T08:17:10;3.10;;;0.90;;
48853;SDS011;34673;52.808;17.856;2023-06-04T08:19:38;1.52;;;0.73;;
48853;SDS011;34673;52.808;17.856;2023-06-04T08:22:05;2.50;;;0.93;;
48853;SDS011;34673;52.808;17.856;2023-06-04T08:24:33;6.13;;;0.90;;
48853;SDS011;34673;52.808;17.856;2023-06-04T08:27:00;4.75;;;0.90;;
48853;SDS011;34673;52.808;17.856;2023-06-04T08:29:27;2.28;;;0.90;;
48853;SDS011;34673;52.808;17.856;2023-06-04T08:31:54;3.53;;;0.80;;
48853;SDS011;34673;52.808;17.856;2023-06-04T08:34:22;3.47;;;0.90;;
48853;SDS011;34673;52.808;17.856;2023-06-04T08:36:49;2.55;;;0.82;;
48853;SDS011;34673;52.808;17.856;2023-06-04T08:39:16;4.93;;;0.60;;
48853;SDS011;34673;52.808;17.856;2023-06-04T08:41:45;2.55;;;1.00;;
48853;SDS011;34673;52.808;17.856;2023-06-04T08:44:16;2.80;;;1.00;;
48853;SDS011;34673;52.808;17.856;2023-06-04T08:46:44;1.90;;;0.88;;
48853;SDS011;34673;52.808;17.856;2023-06-04T08:49:12;2.50;;;0.98;;
48853;SDS011;34673;52.808;17.856;2023-06-04T08:51:39;4.07;;;1.00;;
48853;SDS011;34673;52.808;17.856;2023-06-04T08:54:07;2.20;;;0.70;;
48853;SDS011;34673;52.808;17.856;2023-06-04T08:56:37;3.30;;;0.93;;
48853;SDS011;34673;52.808;17.856;2023-06-04T08:59:05;2.97;;;1.13;;
48853;SDS011;34673;52.808;17.856;2023-06-04T09:01:35;1.95;;;0.60;;
48853;SDS011;34673;52.808;17.856;2023-06-04T09:04:05;6.30;;;0.95;;
48853;SDS011;34673;52.808;17.856;2023-06-04T09:06:38;2.58;;;0.90;;
48853;SDS011;34673;52.808;17.856;2023-06-04T09:09:08;2.92;;;0.98;;
48853;SDS011;34673;52.808;17.856;2023-06-04T09:11:41;2.50;;;0.70;;
48853;SDS011;34673;52.808;17.856;2023-06-04T09:14:18;1.70;;;0.70;;
48853;SDS011;34673;52.808;17.856;2023-06-04T09:16:46;5.32;;;1.08;;
48853;SDS011;34673;52.808;17.856;2023-06-04T09:19:15;2.10;;;0.80;;
48853;SDS011;34673;52.808;17.856;2023-06-04T09:21:54;1.67;;;0.85;;
48853;SDS011;34673;52.808;17.856;2023-06-04T09:24:33;3.45;;;0.90;;
48853;SDS011;34673;52.808;17.856;2023-06-04T09:27:17;2.65;;;0.98;;
48853;SDS011;34673;52.808;17.856;2023-06-04T09:29:52;4.32;;;0.77;;
48853;SDS011;34673;52.808;17.856;2023-06-04T09:32:24;4.90;;;0.80;;
48853;SDS011;34673;52.808;17.856;2023-06-04T09:34:54;4.00;;;0.90;;
48853;SDS011;34673;52.808;17.856;2023-06-04T09:39:54;1.67;;;0.80;;
48853;SDS011;34673;52.808;17.856;2023-06-04T09:42:22;5.18;;;0.73;;
48853;SDS011;34673;52.808;17.856;2023-06-04T09:44:50;1.88;;;0.70;;
48853;SDS011;34673;52.808;17.856;2023-06-04T09:47:18;2.67;;;0.80;;
48853;SDS011;34673;52.808;17.856;2023-06-04T09:49:46;4.07;;;1.05;;
48853;SDS011;34673;52.808;17.856;2023-06-04T09:52:14;2.47;;;1.07;;
48853;SDS011;34673;52.808;17.856;2023-06-04T09:54:41;3.58;;;0.90;;
48853;SDS011;34673;52.808;17.856;2023-06-04T09:57:18;2.33;;;0.80;;
48853;SDS011;34673;52.808;17.856;2023-06-04T09:59:50;3.95;;;1.00;;
48853;SDS011;34673;52.808;17.856;2023-06-04T10:02:21;2.17;;;0.80;;
48853;SDS011;34673;52.808;17.856;2023-06-04T10:04:49;2.38;;;0.85;;
48853;SDS011;34673;52.808;17.856;2023-06-04T10:07:26;1.92;;;0.90;;
48853;SDS011;34673;52.808;17.856;2023-06-04T10:09:53;3.70;;;1.23;;
48853;SDS011;34673;52.808;17.856;2023-06-04T10:12:23;2.67;;;0.90;;
48853;SDS011;34673;52.808;17.856;2023-06-04T10:14:54;2.13;;;0.77;;
48853;SDS011;34673;52.808;17.856;2023-06-04T10:17:26;1.85;;;0.70;;
48853;SDS011;34673;52.808;17.856;2023-06-04T10:19:56;4.40;;;0.98;;
48853;SDS011;34673;52.808;17.856;2023-06-04T10:22:26;2.47;;;0.80;;
48853;SDS011;34673;52.808;17.856;2023-06-04T10:24:56;4.20;;;0.90;;
48853;SDS011;34673;52.808;17.856;2023-06-04T10:27:24;2.67;;;0.90;;
48853;SDS011;34673;52.808;17.856;2023-06-04T10:29:52;2.13;;;0.77;;
48853;SDS011;34673;52.808;17.856;2023-06-04T10:32:19;2.85;;;0.75;;
48853;SDS011;34673;52.808;17.856;2023-06-04T10:34:47;1.35;;;0.80;;
48853;SDS011;34673;52.808;17.856;2023-06-04T10:37:21;2.53;;;0.90;;
48853;SDS011;34673;52.808;17.856;2023-06-04T10:39:53;2.63;;;1.13;;
48853;SDS011;34673;52.808;17.856;2023-06-04T10:42:22;4.00;;;0.70;;
48853;SDS011;34673;52.808;17.856;2023-06-04T10:44:51;3.38;;;0.93;;
48853;SDS011;34673;52.808;17.856;2023-06-04T10:50:06;4.40;;;1.08;;
48853;SDS011;34673;52.808;17.856;2023-06-04T10:52:38;3.22;;;0.80;;
48853;SDS011;34673;52.808;17.856;2023-06-04T10:55:16;3.28;;;0.88;;
48853;SDS011;34673;52.808;17.856;2023-06-04T10:57:56;2.72;;;1.00;;
48853;SDS011;34673;52.808;17.856;2023-06-04T11:00:35;2.20;;;0.80;;
48853;SDS011;34673;52.808;17.856;2023-06-04T11:03:04;1.92;;;0.70;;
48853;SDS011;34673;52.808;17.856;2023-06-04T11:05:36;2.05;;;0.95;;
48853;SDS011;34673;52.808;17.856;2023-06-04T11:08:04;4.53;;;0.77;;
48853;SDS011;34673;52.808;17.856;2023-06-04T11:10:45;1.77;;;0.70;;
48853;SDS011;34673;52.808;17.856;2023-06-04T11:13:13;4.70;;;0.82;;
48853;SDS011;34673;52.808;17.856;2023-06-04T11:15:41;3.38;;;0.80;;
48853;SDS011;34673;52.808;17.856;2023-06-04T11:18:13;2.95;;;0.90;;
48853;SDS011;34673;52.808;17.856;2023-06-04T11:20:43;7.18;;;1.13;;
48853;SDS011;34673;52.808;17.856;2023-06-04T11:23:14;3.10;;;0.73;;
48853;SDS011;34673;52.808;17.856;2023-06-04T11:25:42;3.75;;;0.90;;
48853;SDS011;34673;52.808;17.856;2023-06-04T11:28:14;3.05;;;0.90;;
48853;SDS011;34673;52.808;17.856;2023-06-04T11:30:58;3.70;;;0.80;;
48853;SDS011;34673;52.808;17.856;2023-06-04T11:33:30;3.03;;;0.82;;
48853;SDS011;34673;52.808;17.856;2023-06-04T11:35:57;2.03;;;0.77;;
48853;SDS011;34673;52.808;17.856;2023-06-04T11:38:24;4.93;;;0.90;;
48853;SDS011;34673;52.808;17.856;2023-06-04T11:40:58;2.88;;;0.82;;
48853;SDS011;34673;52.808;17.856;2023-06-04T11:43:27;2.58;;;0.85;;
48853;SDS011;34673;52.808;17.856;2023-06-04T11:45:55;2.15;;;0.65;;
48853;SDS011;34673;52.808;17.856;2023-06-04T11:48:23;1.90;;;0.80;;
48853;SDS011;34673;52.808;17.856;2023-06-04T11:50:51;4.60;;;0.90;;
48853;SDS011;34673;52.808;17.856;2023-06-04T11:53:18;3.47;;;0.82;;
48853;SDS011;34673;52.808;17.856;2023-06-04T11:55:46;1.00;;;0.52;;
48853;SDS011;34673;52.808;17.856;2023-06-04T11:58:13;1.85;;;0.80;;
48853;SDS011;34673;52.808;17.856;2023-06-04T12:00:42;3.47;;;0.90;;
48853;SDS011;34673;52.808;17.856;2023-06-04T12:03:09;1.95;;;0.80;;
48853;SDS011;34673;52.808;17.856;2023-06-04T12:05:37;2.42;;;0.90;;
48853;SDS011;34673;52.808;17.856;2023-06-04T12:08:05;5.00;;;0.88;;
48853;SDS011;34673;52.808;17.856;2023-06-04T12:10:38;1.88;;;0.80;;
48853;SDS011;34673;52.808;17.856;2023-06-04T12:13:06;2.10;;;0.90;;
48853;SDS011;34673;52.808;17.856;2023-06-04T12:15:34;3.20;;;0.82;;
48853;SDS011;34673;52.808;17.856;2023-06-04T12:18:01;2.92;;;1.10;;
48853;SDS011;34673;52.808;17.856;2023-06-04T12:23:06;2.80;;;0.90;;
48853;SDS011;34673;52.808;17.856;2023-06-04T12:25:34;4.70;;;1.02;;
48853;SDS011;34673;52.808;17.856;2023-06-04T12:30:35;4.55;;;0.85;;
48853;SDS011;34673;52.808;17.856;2023-06-04T12:33:04;5.13;;;1.00;;
48853;SDS011;34673;52.808;17.856;2023-06-04T12:35:31;2.83;;;0.80;;
48853;SDS011;34673;52.808;17.856;2023-06-04T12:37:59;2.33;;;0.82;;
48853;SDS011;34673;52.808;17.856;2023-06-04T12:40:26;2.45;;;0.80;;
48853;SDS011;34673;52.808;17.856;2023-06-04T12:42:54;3.50;;;1.10;;
48853;SDS011;34673;52.808;17.856;2023-06-04T12:45:21;3.60;;;0.80;;
48853;SDS011;34673;52.808;17.856;2023-06-04T12:47:48;3.72;;;0.98;;
48853;SDS011;34673;52.808;17.856;2023-06-04T12:50:15;4.53;;;0.90;;
48853;SDS011;34673;52.808;17.856;2023-06-04T12:52:47;3.80;;;1.02;;
48853;SDS011;34673;52.808;17.856;2023-06-04T12:55:15;2.30;;;0.90;;
48853;SDS011;34673;52.808;17.856;2023-06-04T12:57:42;3.75;;;0.80;;
48853;SDS011;34673;52.808;17.856;2023-06-04T13:00:11;2.10;;;0.80;;
48853;SDS011;34673;52.808;17.856;2023-06-04T13:02:39;2.53;;;0.80;;
48853;SDS011;34673;52.808;17.856;2023-06-04T13:05:06;3.03;;;1.00;;
48853;SDS011;34673;52.808;17.856;2023-06-04T13:07:34;4.60;;;1.00;;
48853;SDS011;34673;52.808;17.856;2023-06-04T13:10:01;2.05;;;0.77;;
48853;SDS011;34673;52.808;17.856;2023-06-04T13:12:28;2.38;;;1.00;;
48853;SDS011;34673;52.808;17.856;2023-06-04T13:14:56;1.58;;;0.80;;
48853;SDS011;34673;52.808;17.856;2023-06-04T13:17:23;1.67;;;0.70;;
48853;SDS011;34673;52.808;17.856;2023-06-04T13:19:50;4.95;;;0.80;;
48853;SDS011;34673;52.808;17.856;2023-06-04T13:22:18;2.55;;;0.90;;
48853;SDS011;34673;52.808;17.856;2023-06-04T13:24:46;3.65;;;1.00;;
48853;SDS011;34673;52.808;17.856;2023-06-04T13:27:13;3.90;;;1.00;;
48853;SDS011;34673;52.808;17.856;2023-06-04T13:29:40;1.77;;;0.90;;
48853;SDS011;34673;52.808;17.856;2023-06-04T13:32:10;2.88;;;1.02;;
48853;SDS011;34673;52.808;17.856;2023-06-04T13:34:37;3.42;;;0.75;;
48853;SDS011;34673;52.808;17.856;2023-06-04T13:37:05;4.95;;;1.08;;
48853;SDS011;34673;52.808;17.856;2023-06-04T13:39:33;2.70;;;0.90;;
48853;SDS011;34673;52.808;17.856;2023-06-04T13:42:00;4.50;;;1.10;;
48853;SDS011;34673;52.808;17.856;2023-06-04T13:44:28;3.67;;;0.95;;
48853;SDS011;34673;52.808;17.856;2023-06-04T13:46:57;3.47;;;0.88;;
48853;SDS011;34673;52.808;17.856;2023-06-04T13:51:52;3.25;;;1.17;;
48853;SDS011;34673;52.808;17.856;2023-06-04T13:54:19;2.03;;;0.80;;
48853;SDS011;34673;52.808;17.856;2023-06-04T13:56:47;3.65;;;0.70;;
48853;SDS011;34673;52.808;17.856;2023-06-04T13:59:15;2.63;;;0.77;;
48853;SDS011;34673;52.808;17.856;2023-06-04T14:01:42;3.00;;;1.08;;
48853;SDS011;34673;52.808;17.856;2023-06-04T14:04:10;3.58;;;0.98;;
48853;SDS011;34673;52.808;17.856;2023-06-04T14:06:38;2.75;;;0.80;;
48853;SDS011;34673;52.808;17.856;2023-06-04T14:09:05;6.55;;;0.90;;
48853;SDS011;34673;52.808;17.856;2023-06-04T14:11:33;3.42;;;1.00;;
48853;SDS011;34673;52.808;17.856;2023-06-04T14:14:01;2.00;;;0.88;;
48853;SDS011;34673;52.808;17.856;2023-06-04T14:16:28;3.00;;;1.00;;
48853;SDS011;34673;52.808;17.856;2023-06-04T14:18:55;2.85;;;1.10;;
48853;SDS011;34673;52.808;17.856;2023-06-04T14:21:23;2.83;;;0.77;;
48853;SDS011;34673;52.808;17.856;2023-06-04T14:23:50;5.20;;;0.90;;
48853;SDS011;34673;52.808;17.856;2023-06-04T14:26:17;3.35;;;1.00;;
48853;SDS011;34673;52.808;17.856;2023-06-04T14:28:44;4.38;;;0.90;;
48853;SDS011;34673;52.808;17.856;2023-06-04T14:31:11;3.50;;;0.80;;
48853;SDS011;34673;52.808;17.856;2023-06-04T14:33:39;2.45;;;0.80;;
48853;SDS011;34673;52.808;17.856;2023-06-04T14:36:06;4.00;;;0.93;;
48853;SDS011;34673;52.808;17.856;2023-06-04T14:38:33;1.80;;;0.80;;
48853;SDS011;34673;52.808;17.856;2023-06-04T14:41:00;1.63;;;0.90;;
48853;SDS011;34673;52.808;17.856;2023-06-04T14:43:28;2.92;;;1.00;;
48853;SDS011;34673;52.808;17.856;2023-06-04T14:45:55;2.10;;;0.82;;
48853;SDS011;34673;52.808;17.856;2023-06-04T14:48:22;3.30;;;0.98;;
48853;SDS011;34673;52.808;17.856;2023-06-04T14:50:50;5.05;;;1.08;;
48853;SDS011;34673;52.808;17.856;2023-06-04T14:53:21;2.95;;;1.00;;
48853;SDS011;34673;52.808;17.856;2023-06-04T14:55:49;2.10;;;0.80;;
48853;SDS011;34673;52.808;17.856;2023-06-04T14:58:18;1.70;;;0.90;;
48853;SDS011;34673;52.808;17.856;2023-06-04T15:00:45;3.03;;;0.80;;
48853;SDS011;34673;52.808;17.856;2023-06-04T15:03:12;1.63;;;0.90;;
48853;SDS011;34673;52.808;17.856;2023-06-04T15:05:40;3.55;;;1.17;;